createdAt,value
2018-11-27T00:01:14.427Z,8.73
2018-11-27T00:03:41.586Z,8.98
2018-11-27T00:06:12.760Z,9.23
2018-11-27T00:08:40.470Z,9.43
2018-11-27T00:13:53.756Z,9.29
2018-11-27T00:16:21.828Z,9.39
2018-11-27T00:18:52.942Z,9.48
2018-11-27T00:21:25.256Z,9.50
2018-11-27T00:23:56.663Z,9.82
2018-11-27T00:29:15.335Z,9.81
2018-11-27T00:31:43.433Z,9.85
2018-11-27T00:34:11.152Z,9.75
2018-11-27T00:36:38.184Z,10.22
2018-11-27T00:39:09.167Z,10.12
2018-11-27T00:41:36.660Z,10.42
2018-11-27T00:44:04.168Z,10.30
2018-11-27T00:46:30.958Z,10.35
2018-11-27T00:54:33.708Z,9.91
2018-11-27T00:57:02.646Z,9.79
2018-11-27T00:59:31.118Z,10.10
2018-11-27T01:02:01.841Z,10.25
2018-11-27T01:04:29.613Z,9.71
2018-11-27T01:09:47.180Z,9.72
2018-11-27T01:12:17.176Z,9.90
2018-11-27T01:14:45.079Z,10.08
2018-11-27T01:17:16.225Z,10.24
2018-11-27T01:19:45.249Z,9.78
2018-11-27T01:22:15.886Z,9.60
2018-11-27T01:27:30.169Z,9.77
2018-11-27T01:29:59.151Z,9.42
2018-11-27T01:32:25.604Z,9.42
2018-11-27T01:34:53.995Z,9.40
2018-11-27T01:37:22.432Z,9.30
2018-11-27T01:39:49.871Z,9.64
2018-11-27T01:42:17.325Z,9.64
2018-11-27T01:44:44.584Z,9.66
2018-11-27T01:47:12.168Z,9.74
2018-11-27T01:49:46.041Z,9.46
2018-11-27T01:52:13.494Z,9.25
2018-11-27T01:54:39.895Z,9.63
2018-11-27T01:57:07.341Z,8.93
2018-11-27T01:59:34.560Z,9.02
2018-11-27T02:02:05.508Z,9.42
2018-11-27T02:04:31.947Z,9.03
2018-11-27T02:07:01.279Z,8.61
2018-11-27T02:09:28.727Z,8.89
2018-11-27T02:11:56.167Z,9.33
2018-11-27T02:14:23.745Z,9.01
2018-11-27T02:16:54.402Z,9.34
2018-11-27T02:19:25.201Z,9.68
2018-11-27T02:21:51.736Z,9.57
2018-11-27T02:24:19.206Z,9.60
2018-11-27T02:26:46.696Z,9.43
2018-11-27T02:29:13.673Z,9.44
2018-11-27T02:31:41.435Z,8.99
2018-11-27T02:34:08.889Z,9.17
2018-11-27T02:36:35.947Z,9.19
2018-11-27T02:39:03.380Z,9.10
2018-11-27T02:41:30.826Z,9.21
2018-11-27T02:43:57.762Z,9.03
2018-11-27T02:46:25.234Z,8.87
2018-11-27T02:48:53.874Z,8.97
2018-11-27T02:51:20.341Z,9.22
2018-11-27T02:53:51.243Z,9.19
2018-11-27T02:56:18.692Z,9.41
2018-11-27T02:58:45.454Z,8.78
2018-11-27T03:01:11.878Z,8.37
2018-11-27T03:03:38.318Z,8.29
2018-11-27T03:06:07.515Z,8.56
2018-11-27T03:08:38.218Z,9.05
2018-11-27T03:11:05.667Z,8.96
2018-11-27T03:13:33.172Z,9.17
2018-11-27T03:16:00.628Z,9.01
2018-11-27T03:18:30.931Z,9.26
2018-11-27T03:20:58.853Z,9.30
2018-11-27T03:23:26.733Z,9.09
2018-11-27T03:25:54.195Z,8.85
2018-11-27T03:28:21.035Z,9.01
2018-11-27T03:30:48.491Z,9.19
2018-11-27T03:33:15.951Z,9.19
2018-11-27T03:35:43.074Z,8.84
2018-11-27T03:38:09.508Z,9.12
2018-11-27T03:40:36.960Z,9.26
2018-11-27T03:43:04.097Z,9.18
2018-11-27T03:45:31.561Z,8.82
2018-11-27T03:47:59.011Z,9.16
2018-11-27T03:50:26.427Z,9.12
2018-11-27T03:52:52.875Z,9.25
2018-11-27T03:55:24.933Z,9.36
2018-11-27T03:57:51.331Z,9.49
2018-11-27T04:00:18.802Z,9.83
2018-11-27T04:02:46.225Z,10.08
2018-11-27T04:05:12.793Z,9.95
2018-11-27T04:10:26.655Z,10.27
2018-11-27T04:12:54.165Z,10.03
2018-11-27T04:15:21.633Z,9.99
2018-11-27T04:17:48.256Z,10.05
2018-11-27T04:20:15.741Z,10.08
2018-11-27T04:22:43.174Z,9.82
2018-11-27T04:25:11.872Z,10.07
2018-11-27T04:27:42.795Z,10.39
2018-11-27T04:30:13.683Z,10.17
2018-11-27T04:32:40.375Z,9.93
2018-11-27T04:35:11.088Z,10.21
2018-11-27T04:37:37.755Z,10.50
2018-11-27T04:40:06.563Z,10.27
2018-11-27T04:42:37.176Z,10.20
2018-11-27T04:45:08.046Z,10.10
2018-11-27T04:47:34.966Z,10.02
2018-11-27T04:50:02.431Z,9.92
2018-11-27T04:52:33.101Z,10.01
2018-11-27T04:55:02.451Z,9.83
2018-11-27T04:57:31.641Z,9.74
2018-11-27T05:00:02.439Z,9.55
2018-11-27T05:02:39.529Z,9.77
2018-11-27T05:05:06.984Z,10.24
2018-11-27T05:07:34.738Z,10.15
2018-11-27T05:10:02.657Z,9.49
2018-11-27T05:12:30.067Z,9.64
2018-11-27T05:14:58.685Z,10.04
2018-11-27T05:17:25.595Z,10.15
2018-11-27T05:19:54.499Z,9.96
2018-11-27T05:22:23.420Z,9.56
2018-11-27T05:24:53.125Z,9.40
2018-11-27T05:27:21.042Z,9.35
2018-11-27T05:29:49.940Z,9.27
2018-11-27T05:32:18.451Z,9.21
2018-11-27T05:34:45.146Z,9.40
2018-11-27T05:37:14.785Z,9.47
2018-11-27T05:39:44.133Z,9.51
2018-11-27T05:42:12.057Z,9.74
2018-11-27T05:44:39.512Z,9.75
2018-11-27T05:47:09.335Z,9.63
2018-11-27T05:49:38.501Z,9.93
2018-11-27T05:52:06.641Z,10.04
2018-11-27T05:54:50.111Z,10.06
2018-11-27T05:57:17.567Z,9.61
2018-11-27T05:59:44.470Z,9.55
2018-11-27T06:02:13.308Z,9.75
2018-11-27T06:04:53.287Z,10.13
2018-11-27T06:07:21.001Z,10.62
2018-11-27T06:09:48.495Z,10.47
2018-11-27T06:12:15.935Z,10.25
2018-11-27T06:14:45.208Z,10.29
2018-11-27T06:17:14.919Z,10.39
2018-11-27T06:19:42.365Z,10.29
2018-11-27T06:22:11.104Z,10.37
2018-11-27T06:24:38.358Z,9.94
2018-11-27T06:27:08.985Z,9.50
2018-11-27T06:29:36.468Z,9.67
2018-11-27T06:32:03.011Z,9.98
2018-11-27T06:34:32.768Z,10.19
2018-11-27T06:37:01.666Z,10.19
2018-11-27T06:39:28.480Z,9.92
2018-11-27T06:41:58.439Z,10.07
2018-11-27T06:44:28.071Z,10.36
2018-11-27T06:46:54.958Z,10.69
2018-11-27T06:49:21.392Z,10.70
2018-11-27T06:51:48.857Z,10.54
2018-11-27T06:54:17.667Z,10.40
2018-11-27T06:56:45.116Z,10.63
2018-11-27T06:59:14.346Z,10.47
2018-11-27T07:01:58.727Z,10.99
2018-11-27T07:04:27.791Z,10.69
2018-11-27T07:09:45.016Z,10.15
2018-11-27T07:12:28.847Z,10.07
2018-11-27T07:14:58.440Z,9.82
2018-11-27T07:17:28.636Z,10.27
2018-11-27T07:19:55.340Z,10.25
2018-11-27T07:22:21.997Z,10.30
2018-11-27T07:24:52.676Z,10.17
2018-11-27T07:27:22.392Z,10.15
2018-11-27T07:29:50.556Z,9.92
2018-11-27T07:32:19.435Z,9.64
2018-11-27T07:34:46.093Z,9.92
2018-11-27T07:37:13.571Z,9.90
2018-11-27T07:39:41.035Z,9.59
2018-11-27T07:44:54.043Z,9.61
2018-11-27T07:47:21.538Z,9.32
2018-11-27T07:49:48.191Z,9.10
2018-11-27T07:52:15.638Z,9.22
2018-11-27T07:54:48.056Z,9.27
2018-11-27T07:57:16.142Z,9.23
2018-11-27T07:59:47.114Z,9.32
2018-11-27T08:02:13.973Z,9.16
2018-11-27T08:04:42.712Z,9.61
2018-11-27T08:07:12.261Z,9.56
2018-11-27T08:09:42.855Z,9.38
2018-11-27T08:12:13.216Z,9.43
2018-11-27T08:17:31.233Z,9.73
2018-11-27T08:22:44.522Z,9.44
2018-11-27T08:25:11.983Z,9.53
2018-11-27T08:27:40.886Z,9.08
2018-11-27T08:30:12.410Z,9.19
2018-11-27T08:32:43.120Z,8.87
2018-11-27T08:35:22.765Z,8.69
2018-11-27T08:37:50.282Z,8.92
2018-11-27T08:40:16.721Z,9.02
2018-11-27T08:42:45.876Z,9.13
2018-11-27T08:45:15.258Z,9.56
2018-11-27T08:47:42.718Z,9.47
2018-11-27T08:50:09.166Z,9.29
2018-11-27T08:52:36.889Z,9.56
2018-11-27T08:55:08.847Z,9.24
2018-11-27T08:57:40.559Z,9.45
2018-11-27T09:00:07.860Z,9.22
2018-11-27T09:02:36.278Z,8.84
2018-11-27T09:05:03.734Z,9.23
2018-11-27T09:07:30.448Z,9.34
2018-11-27T09:09:57.587Z,9.28
2018-11-27T09:12:25.051Z,9.49
2018-11-27T09:14:56.851Z,9.82
2018-11-27T09:17:26.254Z,9.78
2018-11-27T09:19:56.842Z,9.42
2018-11-27T09:22:26.020Z,8.73
2018-11-27T09:25:04.623Z,8.63
2018-11-27T09:27:31.331Z,9.10
2018-11-27T09:29:58.825Z,9.24
2018-11-27T09:32:25.555Z,9.33
2018-11-27T09:34:54.411Z,9.49
2018-11-27T09:37:21.459Z,9.51
2018-11-27T09:39:50.023Z,9.26
2018-11-27T09:42:21.045Z,8.38
2018-11-27T09:44:47.896Z,8.20
2018-11-27T09:47:33.168Z,8.61
2018-11-27T09:50:00.944Z,9.10
2018-11-27T09:52:27.680Z,9.37
2018-11-27T09:54:56.558Z,9.58
2018-11-27T09:57:24.018Z,9.55
2018-11-27T09:59:54.179Z,9.15
2018-11-27T10:02:22.271Z,9.19
2018-11-27T10:04:51.505Z,9.63
2018-11-27T10:07:18.398Z,9.89
2018-11-27T10:09:47.473Z,9.81
2018-11-27T10:12:13.901Z,10.36
2018-11-27T10:14:48.127Z,10.17
2018-11-27T10:17:16.881Z,10.29
2018-11-27T10:19:48.014Z,10.21
2018-11-27T10:22:17.488Z,10.44
2018-11-27T10:24:47.374Z,10.02
2018-11-27T10:27:14.832Z,9.81
2018-11-27T10:29:45.113Z,9.77
2018-11-27T10:32:15.800Z,9.79
2018-11-27T10:34:43.240Z,9.27
2018-11-27T10:37:09.943Z,9.86
2018-11-27T10:39:39.124Z,9.53
2018-11-27T10:42:05.791Z,9.68
2018-11-27T10:44:33.933Z,9.33
2018-11-27T10:49:57.366Z,9.78
2018-11-27T10:52:25.915Z,10.28
2018-11-27T10:54:53.302Z,10.50
2018-11-27T10:57:28.061Z,10.64
2018-11-27T10:59:56.677Z,10.54
2018-11-27T11:02:25.559Z,10.35
2018-11-27T11:04:54.200Z,10.22
2018-11-27T11:07:24.079Z,10.31
2018-11-27T11:10:01.954Z,10.32
2018-11-27T11:12:30.220Z,10.35
2018-11-27T11:14:59.535Z,10.63
2018-11-27T11:17:26.720Z,10.54
2018-11-27T11:19:56.773Z,10.33
2018-11-27T11:22:23.215Z,10.50
2018-11-27T11:24:49.667Z,10.43
2018-11-27T11:27:16.194Z,10.79
2018-11-27T11:29:46.766Z,10.67
2018-11-27T11:32:14.235Z,10.67
2018-11-27T11:34:42.730Z,10.62
2018-11-27T11:37:10.428Z,10.40
2018-11-27T11:39:41.287Z,9.83
2018-11-27T11:42:10.470Z,10.18
2018-11-27T11:44:37.926Z,10.23
2018-11-27T11:47:06.480Z,10.51
2018-11-27T11:49:33.632Z,10.47
2018-11-27T11:52:04.599Z,10.42
2018-11-27T11:54:33.298Z,10.18
2018-11-27T11:57:01.878Z,10.29
2018-11-27T11:59:29.984Z,10.57
2018-11-27T12:01:57.109Z,11.04
2018-11-27T12:04:25.127Z,10.76
2018-11-27T12:06:53.725Z,11.05
2018-11-27T12:09:21.179Z,10.68
2018-11-27T12:11:48.702Z,10.19
2018-11-27T12:17:02.967Z,10.55
2018-11-27T12:19:30.484Z,9.97
2018-11-27T12:22:04.202Z,10.30
2018-11-27T12:24:30.879Z,10.59
2018-11-27T12:27:01.572Z,10.16
2018-11-27T12:29:31.265Z,9.80
2018-11-27T12:31:57.970Z,9.62
2018-11-27T12:34:24.481Z,9.72
2018-11-27T12:39:37.703Z,10.58
2018-11-27T12:42:05.374Z,10.16
2018-11-27T12:44:33.889Z,10.08
2018-11-27T12:47:02.962Z,10.07
2018-11-27T12:49:29.635Z,9.63
2018-11-27T12:52:01.299Z,9.40
2018-11-27T12:54:32.569Z,9.71
2018-11-27T12:57:12.491Z,9.50
2018-11-27T12:59:43.034Z,9.73
2018-11-27T13:02:12.153Z,9.38
2018-11-27T13:04:41.371Z,9.47
2018-11-27T13:07:14.734Z,9.27
2018-11-27T13:09:54.860Z,9.13
2018-11-27T13:12:22.829Z,9.24
2018-11-27T13:17:38.450Z,9.29
2018-11-27T13:22:52.670Z,9.51
2018-11-27T13:25:20.415Z,9.64
2018-11-27T13:27:47.069Z,9.32
2018-11-27T13:30:15.733Z,8.92
2018-11-27T13:32:46.773Z,8.86
2018-11-27T13:35:14.862Z,8.81
2018-11-27T13:37:44.735Z,9.17
2018-11-27T13:40:14.134Z,9.51
2018-11-27T13:42:40.784Z,9.47
2018-11-27T13:45:09.446Z,9.61
2018-11-27T13:47:39.551Z,9.83
2018-11-27T13:50:23.393Z,9.46
2018-11-27T13:52:54.256Z,9.06
2018-11-27T13:55:21.497Z,8.75
2018-11-27T13:57:49.424Z,8.62
2018-11-27T14:00:18.128Z,8.89
2018-11-27T14:02:48.798Z,8.80
2018-11-27T14:08:04.573Z,8.85
2018-11-27T14:10:32.254Z,9.20
2018-11-27T14:13:01.196Z,9.53
2018-11-27T14:15:29.954Z,9.23
2018-11-27T14:17:56.404Z,9.13
2018-11-27T14:20:26.786Z,8.79
2018-11-27T14:22:54.796Z,8.81
2018-11-27T14:25:32.104Z,8.82
2018-11-27T14:28:02.606Z,9.18
2018-11-27T14:30:31.822Z,8.64
2018-11-27T14:32:59.264Z,8.65
2018-11-27T14:35:27.349Z,8.93
2018-11-27T14:37:54.284Z,9.00
2018-11-27T14:40:23.214Z,8.68
2018-11-27T14:42:50.650Z,8.52
2018-11-27T14:45:20.140Z,8.65
2018-11-27T14:50:33.770Z,8.47
2018-11-27T14:53:01.225Z,8.50
2018-11-27T14:55:30.095Z,8.54
2018-11-27T14:57:57.392Z,8.61
2018-11-27T15:00:25.131Z,8.64
2018-11-27T15:02:55.664Z,9.02
2018-11-27T15:05:35.731Z,8.82
2018-11-27T15:08:29.320Z,8.39
2018-11-27T15:13:46.388Z,9.12
2018-11-27T15:16:16.231Z,8.79
2018-11-27T15:18:43.910Z,8.66
2018-11-27T15:21:10.750Z,8.80
2018-11-27T15:23:39.375Z,8.82
2018-11-27T15:26:06.834Z,8.56
2018-11-27T15:28:37.487Z,8.15
2018-11-27T15:31:04.040Z,8.04
2018-11-27T15:33:31.471Z,8.26
2018-11-27T15:36:00.136Z,8.30
2018-11-27T15:38:34.643Z,9.01
2018-11-27T15:41:02.091Z,9.06
2018-11-27T15:43:38.746Z,8.81
2018-11-27T15:48:52.807Z,8.23
2018-11-27T15:51:21.694Z,8.32
2018-11-27T15:53:50.610Z,8.53
2018-11-27T15:56:18.063Z,8.54
2018-11-27T15:58:49.303Z,8.51
2018-11-27T16:01:18.126Z,8.22
2018-11-27T16:03:47.409Z,8.31
2018-11-27T16:06:26.868Z,8.47
2018-11-27T16:08:58.257Z,8.23
2018-11-27T16:11:28.970Z,8.41
2018-11-27T16:13:57.086Z,8.36
2018-11-27T16:16:26.278Z,8.08
2018-11-27T16:21:40.734Z,8.35
2018-11-27T16:24:07.942Z,8.25
2018-11-27T16:32:11.165Z,8.02
2018-11-27T16:34:37.646Z,7.84
2018-11-27T16:37:05.102Z,7.93
2018-11-27T16:39:34.236Z,8.27
2018-11-27T16:42:03.079Z,8.22
2018-11-27T16:44:30.525Z,8.13
2018-11-27T16:46:57.973Z,8.20
2018-11-27T16:49:27.793Z,7.43
2018-11-27T16:51:58.847Z,7.83
2018-11-27T16:54:28.772Z,8.10
2018-11-27T16:56:56.241Z,8.17
2018-11-27T16:59:25.316Z,8.30
2018-11-27T17:01:52.764Z,7.92
2018-11-27T17:04:19.679Z,8.49
2018-11-27T17:06:50.587Z,8.69
2018-11-27T17:12:05.867Z,8.42
2018-11-27T17:14:36.487Z,8.24
2018-11-27T17:17:02.935Z,8.39
2018-11-27T17:19:34.186Z,8.32
2018-11-27T17:22:01.623Z,8.44
2018-11-27T17:28:03.834Z,8.07
2018-11-27T17:30:32.903Z,7.95
2018-11-27T17:33:03.657Z,8.00
2018-11-27T17:35:31.127Z,7.96
2018-11-27T17:37:58.815Z,8.09
2018-11-27T17:40:36.111Z,8.32
2018-11-27T17:43:05.689Z,8.56
2018-11-27T17:45:32.106Z,8.46
2018-11-27T17:48:00.740Z,8.10
2018-11-27T17:50:29.590Z,8.16
2018-11-27T17:53:00.144Z,8.27
2018-11-27T17:55:27.605Z,9.00
2018-11-27T17:57:57.024Z,9.19
2018-11-27T18:00:28.886Z,9.08
2018-11-27T18:03:01.294Z,8.97
2018-11-27T18:13:04.899Z,8.36
2018-11-27T18:15:32.376Z,8.07
2018-11-27T18:17:59.055Z,8.29
2018-11-27T18:20:26.536Z,8.26
2018-11-27T18:22:55.296Z,8.68
2018-11-27T18:25:24.494Z,8.80
2018-11-27T18:27:53.554Z,8.15
2018-11-27T18:30:21.344Z,8.11
2018-11-27T18:32:51.659Z,8.42
2018-11-27T18:35:18.895Z,8.53
2018-11-27T18:38:05.767Z,8.33
2018-11-27T18:40:36.761Z,8.21
2018-11-27T18:43:04.207Z,8.25
2018-11-27T18:45:31.667Z,8.07
2018-11-27T18:48:01.370Z,8.26
2018-11-27T18:50:27.787Z,8.09
2018-11-27T18:52:56.748Z,8.30
2018-11-27T18:55:25.725Z,8.12
2018-11-27T18:57:56.357Z,8.35
2018-11-27T19:00:29.883Z,8.18
2018-11-27T19:02:59.264Z,8.59
2018-11-27T19:05:28.532Z,8.21
2018-11-27T19:07:59.230Z,8.53
2018-11-27T19:10:30.955Z,8.59
2018-11-27T19:13:00.794Z,8.42
2018-11-27T19:15:26.010Z,8.08
2018-11-27T19:17:52.535Z,8.59
2018-11-27T19:23:11.119Z,8.16
2018-11-27T19:25:38.590Z,8.47
2018-11-27T19:28:17.917Z,8.52
2018-11-27T19:30:52.210Z,8.42
2018-11-27T19:36:06.194Z,8.03
2018-11-27T19:38:33.419Z,8.16
2018-11-27T19:41:00.081Z,8.20
2018-11-27T19:43:39.913Z,8.13
2018-11-27T19:46:07.652Z,8.09
2018-11-27T19:48:53.459Z,8.21
2018-11-27T19:51:20.863Z,8.08
2018-11-27T19:53:56.911Z,8.08
2018-11-27T19:56:25.320Z,8.20
2018-11-27T19:58:54.574Z,8.17
2018-11-27T20:01:21.032Z,8.18
2018-11-27T20:06:35.647Z,8.14
2018-11-27T20:09:06.474Z,8.46
2018-11-27T20:11:37.869Z,8.26
2018-11-27T20:14:07.347Z,8.59
2018-11-27T20:16:38.496Z,8.73
2018-11-27T20:19:05.964Z,8.68
2018-11-27T20:21:32.439Z,8.08
2018-11-27T20:24:06.393Z,7.60
2018-11-27T20:26:36.274Z,7.87
2018-11-27T20:29:02.820Z,7.98
2018-11-27T20:31:30.503Z,8.03
2018-11-27T20:34:00.195Z,7.91
2018-11-27T20:36:28.974Z,8.06
2018-11-27T20:39:00.730Z,8.10
2018-11-27T20:41:32.203Z,8.26
2018-11-27T20:44:02.225Z,8.12
2018-11-27T20:46:29.453Z,8.03
2018-11-27T20:48:58.740Z,7.88
2018-11-27T20:51:26.299Z,7.95
2018-11-27T20:56:41.944Z,7.57
2018-11-27T20:59:08.242Z,7.70
2018-11-27T21:01:36.823Z,7.70
2018-11-27T21:04:11.658Z,7.68
2018-11-27T21:06:40.322Z,7.83
2018-11-27T21:09:07.323Z,7.86
2018-11-27T21:11:34.507Z,7.61
2018-11-27T21:14:00.925Z,7.46
2018-11-27T21:16:28.362Z,7.45
2018-11-27T21:18:57.508Z,7.38
2018-11-27T21:21:25.202Z,7.51
2018-11-27T21:23:52.663Z,7.36
2018-11-27T21:26:20.121Z,7.23
2018-11-27T21:28:46.539Z,7.32
2018-11-27T21:31:16.134Z,7.45
2018-11-27T21:33:44.740Z,7.61
2018-11-27T21:36:11.185Z,7.68
2018-11-27T21:38:42.341Z,7.43
2018-11-27T21:41:17.038Z,7.61
2018-11-27T21:43:47.865Z,7.91
2018-11-27T21:46:18.736Z,8.13
2018-11-27T21:48:46.827Z,8.19
2018-11-27T21:51:15.672Z,7.99
2018-11-27T21:53:49.397Z,7.86
2018-11-27T21:56:16.150Z,7.82
2018-11-27T21:58:42.853Z,7.86
2018-11-27T22:03:54.100Z,7.79
2018-11-27T22:06:21.550Z,7.49
2018-11-27T22:08:49.033Z,7.67
2018-11-27T22:11:18.889Z,7.73
2018-11-27T22:13:48.449Z,7.51
2018-11-27T22:16:15.890Z,7.44
2018-11-27T22:18:44.529Z,7.25
2018-11-27T22:21:12.020Z,7.54
2018-11-27T22:23:38.445Z,7.34
2018-11-27T22:26:08.174Z,7.27
2018-11-27T22:28:37.052Z,7.25
2018-11-27T22:31:07.915Z,7.20
2018-11-27T22:33:36.824Z,7.22
2018-11-27T22:36:04.269Z,7.36
2018-11-27T22:38:31.717Z,7.06
2018-11-27T22:40:58.748Z,7.26
2018-11-27T22:43:29.372Z,7.48
2018-11-27T22:45:57.934Z,7.38
2018-11-27T22:48:27.911Z,7.12
2018-11-27T22:50:55.347Z,7.52
2018-11-27T22:53:22.800Z,7.72
2018-11-27T22:55:50.453Z,7.66
2018-11-27T22:58:16.893Z,7.61
2018-11-27T23:03:33.025Z,7.70
2018-11-27T23:06:00.463Z,7.77
2018-11-27T23:08:40.061Z,7.08
2018-11-27T23:11:08.432Z,7.03
2018-11-27T23:13:34.849Z,7.41
2018-11-27T23:16:02.912Z,7.32
2018-11-27T23:18:30.900Z,7.37
2018-11-27T23:21:01.412Z,7.35
2018-11-27T23:23:27.871Z,7.44
2018-11-27T23:26:05.148Z,7.78
2018-11-27T23:28:31.589Z,7.37
2018-11-27T23:30:59.048Z,7.36
2018-11-27T23:33:25.751Z,7.27
2018-11-27T23:38:41.146Z,7.37
2018-11-27T23:43:57.294Z,7.46
2018-11-27T23:46:25.813Z,7.50
2018-11-27T23:48:52.481Z,7.67
2018-11-27T23:51:23.188Z,7.72
2018-11-27T23:53:50.701Z,7.65
2018-11-27T23:56:19.373Z,7.38
2018-11-27T23:58:46.712Z,7.47
